createdAt,value
2023-03-01T00:01:10.216Z,58.17
2023-03-01T00:03:36.890Z,54.25
2023-03-01T00:06:04.118Z,53.38
2023-03-01T00:08:33.891Z,55.13
2023-03-01T00:11:07.843Z,52.22
2023-03-01T00:13:35.956Z,45.30
2023-03-01T00:16:04.915Z,47.97
2023-03-01T00:18:31.438Z,51.72
2023-03-01T00:20:58.084Z,49.08
2023-03-01T00:23:24.989Z,47.40
2023-03-01T00:25:51.822Z,53.03
2023-03-01T00:28:19.000Z,57.67
2023-03-01T00:30:45.877Z,56.72
2023-03-01T00:33:12.554Z,58.35
2023-03-01T00:35:39.140Z,48.63
2023-03-01T00:38:06.087Z,49.88
2023-03-01T00:40:34.816Z,48.95
2023-03-01T00:43:02.182Z,47.75
2023-03-01T00:45:29.401Z,51.95
2023-03-01T00:47:55.922Z,48.72
2023-03-01T00:50:22.704Z,55.35
2023-03-01T00:52:54.063Z,50.58
2023-03-01T00:55:20.723Z,50.60
2023-03-01T00:57:47.318Z,53.38
2023-03-01T01:00:14.170Z,52.63
2023-03-01T01:02:41.192Z,51.92
2023-03-01T01:05:08.264Z,50.63
2023-03-01T01:07:34.870Z,53.05
2023-03-01T01:10:01.386Z,51.15
2023-03-01T01:12:27.932Z,50.58
2023-03-01T01:14:54.436Z,49.22
2023-03-01T01:17:21.344Z,48.17
2023-03-01T01:19:47.844Z,47.53
2023-03-01T01:22:14.400Z,44.88
2023-03-01T01:24:40.874Z,46.85
2023-03-01T01:27:08.318Z,46.67
2023-03-01T01:29:34.950Z,50.35
2023-03-01T01:32:01.713Z,51.20
2023-03-01T01:34:28.253Z,51.88
2023-03-01T01:36:55.417Z,52.30
2023-03-01T01:39:22.835Z,48.45
2023-03-01T01:41:49.431Z,48.95
2023-03-01T01:44:20.657Z,49.72
2023-03-01T01:46:53.758Z,47.80
2023-03-01T01:49:41.897Z,49.00
2023-03-01T01:52:15.259Z,47.47
2023-03-01T01:55:06.736Z,49.08
2023-03-01T01:57:38.180Z,54.75
2023-03-01T02:00:23.178Z,62.88
2023-03-01T02:03:06.115Z,67.85
2023-03-01T02:05:46.805Z,56.03
2023-03-01T02:08:15.612Z,54.97
2023-03-01T02:10:43.065Z,53.75
2023-03-01T02:13:10.415Z,52.20
2023-03-01T02:15:39.234Z,49.55
2023-03-01T02:18:07.564Z,46.25
2023-03-01T02:20:46.517Z,49.88
2023-03-01T02:23:13.162Z,47.47
2023-03-01T02:25:59.231Z,47.70
2023-03-01T02:28:39.530Z,46.75
2023-03-01T02:31:26.994Z,49.30
2023-03-01T02:33:55.422Z,50.47
2023-03-01T02:36:26.261Z,50.13
2023-03-01T02:38:57.043Z,49.30
2023-03-01T02:41:26.038Z,48.70
2023-03-01T02:43:52.577Z,48.88
2023-03-01T02:46:23.211Z,47.50
2023-03-01T02:48:52.670Z,50.53
2023-03-01T02:51:45.304Z,51.28
2023-03-01T02:54:50.733Z,46.35
2023-03-01T02:57:17.632Z,48.95
2023-03-01T02:59:44.656Z,49.45
2023-03-01T03:02:38.891Z,50.97
2023-03-01T03:05:34.994Z,46.67
2023-03-01T03:08:04.012Z,49.20
2023-03-01T03:10:34.888Z,55.45
2023-03-01T03:13:08.622Z,52.55
2023-03-01T03:15:37.087Z,55.75
2023-03-01T03:18:08.102Z,60.22
2023-03-01T03:20:35.549Z,57.92
2023-03-01T03:23:02.389Z,50.13
2023-03-01T03:25:30.318Z,56.30
2023-03-01T03:27:57.975Z,51.95
2023-03-01T03:30:31.264Z,50.72
2023-03-01T03:32:59.551Z,57.05
2023-03-01T03:35:32.579Z,54.30
2023-03-01T03:38:07.505Z,55.78
2023-03-01T03:40:37.337Z,62.20
2023-03-01T03:43:21.535Z,60.95
2023-03-01T03:45:52.823Z,61.13
2023-03-01T03:48:19.542Z,56.47
2023-03-01T03:50:52.054Z,53.67
2023-03-01T03:53:19.787Z,57.25
2023-03-01T03:55:46.368Z,60.53
2023-03-01T03:58:12.954Z,59.33
2023-03-01T04:00:45.107Z,58.67
2023-03-01T04:03:14.339Z,56.13
2023-03-01T04:05:41.993Z,64.75
2023-03-01T04:08:09.668Z,55.03
2023-03-01T04:10:45.985Z,59.38
2023-03-01T04:13:15.014Z,52.88
2023-03-01T04:15:41.782Z,58.63
2023-03-01T04:18:12.527Z,54.78
2023-03-01T04:20:39.925Z,52.65
2023-03-01T04:23:16.736Z,54.38
2023-03-01T04:25:50.450Z,53.65
2023-03-01T04:28:17.585Z,48.60
2023-03-01T04:30:44.109Z,43.47
2023-03-01T04:33:12.117Z,41.38
2023-03-01T04:35:40.085Z,38.53
2023-03-01T04:38:07.035Z,38.20
2023-03-01T04:40:34.121Z,40.53
2023-03-01T04:43:01.038Z,45.13
2023-03-01T04:45:27.553Z,44.08
2023-03-01T04:47:54.215Z,41.72
2023-03-01T04:50:21.518Z,42.42
2023-03-01T04:52:48.429Z,44.15
2023-03-01T04:55:15.180Z,46.08
2023-03-01T04:57:41.786Z,46.08
2023-03-01T05:00:23.819Z,43.70
2023-03-01T05:03:00.395Z,43.50
2023-03-01T05:05:29.574Z,45.70
2023-03-01T05:07:58.588Z,45.63
2023-03-01T05:10:26.918Z,45.22
2023-03-01T05:12:54.067Z,45.00
2023-03-01T05:15:22.761Z,41.47
2023-03-01T05:17:50.213Z,45.10
2023-03-01T05:20:17.030Z,40.05
2023-03-01T05:22:43.726Z,39.05
2023-03-01T05:25:10.840Z,39.45
2023-03-01T05:27:37.609Z,43.65
2023-03-01T05:30:14.424Z,42.38
2023-03-01T05:32:44.228Z,41.15
2023-03-01T05:35:14.272Z,40.53
2023-03-01T05:37:42.765Z,41.13
2023-03-01T05:40:16.578Z,42.15
2023-03-01T05:42:55.117Z,40.30
2023-03-01T05:45:22.729Z,41.78
2023-03-01T05:47:50.555Z,40.60
2023-03-01T05:50:20.269Z,41.42
2023-03-01T05:52:49.587Z,44.10
2023-03-01T05:55:18.659Z,44.00
2023-03-01T05:57:45.780Z,46.13
2023-03-01T06:00:13.949Z,47.35
2023-03-01T06:02:41.002Z,46.90
2023-03-01T06:05:09.798Z,43.60
2023-03-01T06:07:36.584Z,45.13
2023-03-01T06:10:04.384Z,44.33
2023-03-01T06:12:33.111Z,50.38
2023-03-01T06:15:00.302Z,49.50
2023-03-01T06:17:27.478Z,49.88
2023-03-01T06:19:53.980Z,48.63
2023-03-01T06:22:20.487Z,44.30
2023-03-01T06:24:47.012Z,45.20
2023-03-01T06:27:13.504Z,49.58
2023-03-01T06:29:41.772Z,60.60
2023-03-01T06:32:09.161Z,82.93
2023-03-01T06:34:35.706Z,65.47
2023-03-01T06:37:06.240Z,52.15
2023-03-01T06:39:33.345Z,52.15
2023-03-01T06:41:59.979Z,49.97
2023-03-01T06:44:26.935Z,53.13
2023-03-01T06:46:53.701Z,57.38
2023-03-01T06:49:20.989Z,60.75
2023-03-01T06:51:47.958Z,59.83
2023-03-01T06:54:14.532Z,49.63
2023-03-01T06:56:41.073Z,51.47
2023-03-01T06:59:07.544Z,47.28
2023-03-01T07:01:34.092Z,39.20
2023-03-01T07:04:00.655Z,36.47
2023-03-01T07:06:27.166Z,36.13
2023-03-01T07:08:53.672Z,32.45
2023-03-01T07:11:20.198Z,33.05
2023-03-01T07:13:46.697Z,30.63
2023-03-01T07:16:13.297Z,28.50
2023-03-01T07:18:39.857Z,28.92
2023-03-01T07:21:08.122Z,28.48
2023-03-01T07:23:34.766Z,28.27
2023-03-01T07:26:01.631Z,31.25
2023-03-01T07:28:28.569Z,29.23
2023-03-01T07:30:55.522Z,26.95
2023-03-01T07:33:22.170Z,25.85
2023-03-01T07:35:48.790Z,28.55
2023-03-01T07:38:15.365Z,28.45
2023-03-01T07:40:41.843Z,27.50
2023-03-01T07:43:08.361Z,26.48
2023-03-01T07:45:34.861Z,26.92
2023-03-01T07:48:01.380Z,25.95
2023-03-01T07:50:27.914Z,25.17
2023-03-01T07:52:54.460Z,24.33
2023-03-01T07:55:21.238Z,25.60
2023-03-01T07:57:47.774Z,25.42
2023-03-01T08:00:14.680Z,26.83
2023-03-01T08:02:43.001Z,26.73
2023-03-01T08:05:11.300Z,24.27
2023-03-01T08:07:38.096Z,27.80
2023-03-01T08:10:04.933Z,25.13
2023-03-01T08:12:31.531Z,26.65
2023-03-01T08:14:58.098Z,26.33
2023-03-01T08:17:24.864Z,26.20
2023-03-01T08:19:51.358Z,24.13
2023-03-01T08:22:17.851Z,24.60
2023-03-01T08:24:44.386Z,23.25
2023-03-01T08:27:11.345Z,22.63
2023-03-01T08:29:37.822Z,22.90
2023-03-01T08:32:04.622Z,22.52
2023-03-01T08:34:32.299Z,22.83
2023-03-01T08:36:59.273Z,24.50
2023-03-01T08:39:26.019Z,21.73
2023-03-01T08:41:52.816Z,22.08
2023-03-01T08:44:19.337Z,21.63
2023-03-01T08:46:46.693Z,20.42
2023-03-01T08:49:15.772Z,21.40
2023-03-01T08:51:42.781Z,22.88
2023-03-01T08:54:16.003Z,17.67
2023-03-01T08:56:43.235Z,15.90
2023-03-01T08:59:11.208Z,17.13
2023-03-01T09:01:38.142Z,14.32
2023-03-01T09:04:05.466Z,16.20
2023-03-01T09:06:34.186Z,17.00
2023-03-01T09:09:01.977Z,16.38
2023-03-01T09:11:29.576Z,14.60
2023-03-01T09:13:56.494Z,14.00
2023-03-01T09:16:25.200Z,15.45
2023-03-01T09:18:53.476Z,14.13
2023-03-01T09:21:33.740Z,14.02
2023-03-01T09:24:05.931Z,14.55
2023-03-01T09:26:35.256Z,13.88
2023-03-01T09:29:01.889Z,12.95
2023-03-01T09:31:28.421Z,12.73
2023-03-01T09:33:55.950Z,12.55
2023-03-01T09:36:24.677Z,13.13
2023-03-01T09:38:53.875Z,13.75
2023-03-01T09:41:39.222Z,13.20
2023-03-01T09:44:31.046Z,14.52
2023-03-01T09:46:58.882Z,13.57
2023-03-01T09:49:34.898Z,13.63
2023-03-01T09:52:37.067Z,13.20
2023-03-01T09:55:11.524Z,13.40
2023-03-01T09:57:46.934Z,14.00
2023-03-01T10:00:32.259Z,14.45
2023-03-01T10:03:13.235Z,13.75
2023-03-01T10:05:51.077Z,13.50
2023-03-01T10:08:30.370Z,14.15
2023-03-01T10:10:56.922Z,13.32
2023-03-01T10:13:53.896Z,14.00
2023-03-01T10:19:15.775Z,13.70
2023-03-01T10:21:45.763Z,13.27
2023-03-01T10:24:16.112Z,13.73
2023-03-01T10:26:58.118Z,12.75
2023-03-01T10:29:31.846Z,13.18
2023-03-01T10:31:58.612Z,12.82
2023-03-01T10:34:33.072Z,13.23
2023-03-01T10:37:21.941Z,13.02
2023-03-01T10:40:01.973Z,13.43
2023-03-01T10:42:32.611Z,13.00
2023-03-01T10:45:15.967Z,14.15
2023-03-01T10:47:42.566Z,11.57
2023-03-01T10:50:24.411Z,13.43
2023-03-01T10:53:00.587Z,13.82
2023-03-01T10:55:39.328Z,11.60
2023-03-01T10:58:10.390Z,12.88
2023-03-01T11:00:49.031Z,12.52
2023-03-01T11:03:21.248Z,11.20
2023-03-01T11:06:13.991Z,12.85
2023-03-01T11:08:44.433Z,11.15
2023-03-01T11:11:14.103Z,11.60
2023-03-01T11:13:52.462Z,11.23
2023-03-01T11:16:29.416Z,11.00
2023-03-01T11:19:15.512Z,8.90
2023-03-01T11:22:08.697Z,9.95
2023-03-01T11:24:43.414Z,8.55
2023-03-01T11:27:18.327Z,10.32
2023-03-01T11:29:52.155Z,10.60
2023-03-01T11:32:22.217Z,9.75
2023-03-01T11:34:54.464Z,9.90
2023-03-01T11:37:29.776Z,11.30
2023-03-01T11:40:21.608Z,11.20
2023-03-01T11:43:16.248Z,10.05
2023-03-01T11:45:55.745Z,10.38
2023-03-01T11:48:49.897Z,12.25
2023-03-01T11:51:45.615Z,10.70
2023-03-01T11:54:22.007Z,12.18
2023-03-01T11:56:53.682Z,10.75
2023-03-01T11:59:54.511Z,11.20
2023-03-01T12:02:41.544Z,9.75
2023-03-01T12:05:32.862Z,8.68
2023-03-01T12:08:12.186Z,8.63
2023-03-01T12:10:44.855Z,7.32
2023-03-01T12:13:39.637Z,8.63
2023-03-01T12:16:37.634Z,8.35
2023-03-01T12:19:24.049Z,7.82
2023-03-01T12:22:31.449Z,8.23
2023-03-01T12:25:16.517Z,7.50
2023-03-01T12:27:54.869Z,9.13
2023-03-01T12:30:58.898Z,7.93
2023-03-01T12:33:46.329Z,7.93
2023-03-01T12:36:40.629Z,7.85
2023-03-01T12:39:33.734Z,7.88
2023-03-01T12:42:13.337Z,6.75
2023-03-01T12:45:04.041Z,7.85
2023-03-01T12:47:55.680Z,9.13
2023-03-01T12:50:25.447Z,8.75
2023-03-01T12:52:56.483Z,9.88
2023-03-01T12:55:37.268Z,9.68
2023-03-01T12:58:08.753Z,10.10
2023-03-01T13:00:46.714Z,9.52
2023-03-01T13:03:57.914Z,9.40
2023-03-01T13:06:44.200Z,10.00
2023-03-01T13:09:31.751Z,10.32
2023-03-01T13:11:58.843Z,9.77
2023-03-01T13:14:36.611Z,10.50
2023-03-01T13:17:03.353Z,9.63
2023-03-01T13:19:31.136Z,10.45
2023-03-01T13:21:57.715Z,10.20
2023-03-01T13:24:36.123Z,10.02
2023-03-01T13:27:08.337Z,10.32
2023-03-01T13:29:52.624Z,10.55
2023-03-01T13:32:42.967Z,11.43
2023-03-01T13:35:16.686Z,10.77
2023-03-01T13:37:45.852Z,10.32
2023-03-01T13:40:21.788Z,9.10
2023-03-01T13:43:04.284Z,10.15
2023-03-01T13:45:41.522Z,10.38
2023-03-01T13:48:27.070Z,10.85
2023-03-01T13:51:06.206Z,10.52
2023-03-01T13:53:36.783Z,10.38
2023-03-01T13:56:09.462Z,9.27
2023-03-01T13:58:49.328Z,10.13
2023-03-01T14:01:34.179Z,9.77
2023-03-01T14:04:01.902Z,8.45
2023-03-01T14:06:34.587Z,7.60
2023-03-01T14:09:16.160Z,8.80
2023-03-01T14:12:03.357Z,7.75
2023-03-01T14:14:59.172Z,7.05
2023-03-01T14:17:28.710Z,6.15
2023-03-01T14:20:10.157Z,8.52
2023-03-01T14:22:37.581Z,7.32
2023-03-01T14:25:18.080Z,9.25
2023-03-01T14:27:45.407Z,8.52
2023-03-01T14:30:51.639Z,8.70
2023-03-01T14:33:24.029Z,8.02
2023-03-01T14:36:14.270Z,7.72
2023-03-01T14:38:48.329Z,8.07
2023-03-01T14:41:17.800Z,8.05
2023-03-01T14:43:54.659Z,8.90
2023-03-01T14:46:39.510Z,7.78
2023-03-01T14:49:18.064Z,9.18
2023-03-01T14:51:54.402Z,9.55
2023-03-01T14:54:27.674Z,9.18
2023-03-01T14:56:58.681Z,9.27
2023-03-01T14:59:26.052Z,8.35
2023-03-01T15:01:56.312Z,9.48
2023-03-01T15:04:24.289Z,8.82
2023-03-01T15:06:56.544Z,8.98
2023-03-01T15:09:23.815Z,8.88
2023-03-01T15:11:50.386Z,8.70
2023-03-01T15:14:41.047Z,9.65
2023-03-01T15:17:27.370Z,9.75
2023-03-01T15:19:53.935Z,8.70
2023-03-01T15:22:21.885Z,9.88
2023-03-01T15:24:52.083Z,9.20
2023-03-01T15:27:22.790Z,8.85
2023-03-01T15:30:01.385Z,8.63
2023-03-01T15:32:33.910Z,9.50
2023-03-01T15:35:02.461Z,8.68
2023-03-01T15:37:49.692Z,9.82
2023-03-01T15:40:32.939Z,8.70
2023-03-01T15:43:00.023Z,9.98
2023-03-01T15:45:29.640Z,9.18
2023-03-01T15:48:04.527Z,9.95
2023-03-01T15:50:34.246Z,9.50
2023-03-01T15:53:04.805Z,11.38
2023-03-01T15:55:34.294Z,10.68
2023-03-01T15:58:07.845Z,9.52
2023-03-01T16:00:34.598Z,12.13
2023-03-01T16:03:01.296Z,10.10
2023-03-01T16:05:37.350Z,10.82
2023-03-01T16:08:04.980Z,13.93
2023-03-01T16:10:32.520Z,10.43
2023-03-01T16:12:59.255Z,10.88
2023-03-01T16:15:33.284Z,12.52
2023-03-01T16:18:00.297Z,13.18
2023-03-01T16:20:30.413Z,14.68
2023-03-01T16:23:07.400Z,15.63
2023-03-01T16:25:35.710Z,16.67
2023-03-01T16:28:06.020Z,15.85
2023-03-01T16:30:32.729Z,14.68
2023-03-01T16:32:59.632Z,13.85
2023-03-01T16:35:26.446Z,14.90
2023-03-01T16:37:54.894Z,16.27
2023-03-01T16:40:27.930Z,19.17
2023-03-01T16:42:58.113Z,17.52
2023-03-01T16:45:25.475Z,17.33
2023-03-01T16:47:55.691Z,18.48
2023-03-01T16:50:23.160Z,20.15
2023-03-01T16:52:49.686Z,27.15
2023-03-01T16:55:16.390Z,25.20
2023-03-01T16:57:42.963Z,24.63
2023-03-01T17:00:12.155Z,21.95
2023-03-01T17:02:38.829Z,20.02
2023-03-01T17:05:06.709Z,19.17
2023-03-01T17:07:34.404Z,20.77
2023-03-01T17:10:06.443Z,19.48
2023-03-01T17:12:33.652Z,19.13
2023-03-01T17:15:00.291Z,19.10
2023-03-01T17:17:27.875Z,18.73
2023-03-01T17:19:54.481Z,19.95
2023-03-01T17:22:21.024Z,19.13
2023-03-01T17:24:47.562Z,21.48
2023-03-01T17:27:14.906Z,22.27
2023-03-01T17:29:41.797Z,21.80
2023-03-01T17:32:09.263Z,34.85
2023-03-01T17:34:36.156Z,32.15
2023-03-01T17:37:02.645Z,30.63
2023-03-01T17:39:36.147Z,35.47
2023-03-01T17:42:06.228Z,32.60
2023-03-01T17:44:35.593Z,31.80
2023-03-01T17:47:03.512Z,23.05
2023-03-01T17:49:30.534Z,20.20
2023-03-01T17:51:57.189Z,21.45
2023-03-01T17:54:23.942Z,20.65
2023-03-01T17:56:50.898Z,23.35
2023-03-01T17:59:20.599Z,25.75
2023-03-01T18:01:47.682Z,25.30
2023-03-01T18:04:14.596Z,24.95
2023-03-01T18:06:41.244Z,25.70
2023-03-01T18:09:08.744Z,25.65
2023-03-01T18:11:36.340Z,25.65
2023-03-01T18:14:03.870Z,25.88
2023-03-01T18:16:32.221Z,26.27
2023-03-01T18:19:00.442Z,27.23
2023-03-01T18:21:31.217Z,25.83
2023-03-01T18:23:59.761Z,28.17
2023-03-01T18:26:28.005Z,26.70
2023-03-01T18:28:58.346Z,26.27
2023-03-01T18:31:25.303Z,25.90
2023-03-01T18:33:54.907Z,29.25
2023-03-01T18:36:27.133Z,29.13
2023-03-01T18:38:56.333Z,29.25
2023-03-01T18:41:27.830Z,27.40
2023-03-01T18:43:55.956Z,26.30
2023-03-01T18:46:23.345Z,28.00
2023-03-01T18:48:49.953Z,27.48
2023-03-01T18:51:18.959Z,27.00
2023-03-01T18:53:45.869Z,26.73
2023-03-01T18:56:12.652Z,24.95
2023-03-01T18:58:39.690Z,25.77
2023-03-01T19:01:12.518Z,27.65
2023-03-01T19:03:39.031Z,31.67
2023-03-01T19:06:05.625Z,32.95
2023-03-01T19:08:32.519Z,30.63
2023-03-01T19:11:01.047Z,33.45
2023-03-01T19:13:27.618Z,32.08
2023-03-01T19:16:06.340Z,39.47
2023-03-01T19:18:34.264Z,55.10
2023-03-01T19:21:04.343Z,40.58
2023-03-01T19:23:35.113Z,40.10
2023-03-01T19:26:07.802Z,35.40
2023-03-01T19:28:36.060Z,37.67
2023-03-01T19:31:06.600Z,35.42
2023-03-01T19:33:34.714Z,38.80
2023-03-01T19:36:02.378Z,43.15
2023-03-01T19:38:29.773Z,52.63
2023-03-01T19:40:56.843Z,61.85
2023-03-01T19:43:23.522Z,73.97
2023-03-01T19:45:55.095Z,81.30
2023-03-01T19:48:22.665Z,54.83
2023-03-01T19:50:50.980Z,68.50
2023-03-01T19:53:17.890Z,67.57
2023-03-01T19:55:44.582Z,81.50
2023-03-01T19:58:12.183Z,85.55
2023-03-01T20:00:40.298Z,85.55
2023-03-01T20:03:07.054Z,84.70
2023-03-01T20:05:37.878Z,75.68
2023-03-01T20:08:05.490Z,60.33
2023-03-01T20:10:34.007Z,83.68
2023-03-01T20:13:04.001Z,81.50
2023-03-01T20:15:31.210Z,75.25
2023-03-01T20:17:57.824Z,67.63
2023-03-01T20:20:24.412Z,63.55
2023-03-01T20:22:51.104Z,59.05
2023-03-01T20:25:17.943Z,62.47
2023-03-01T20:27:47.673Z,67.95
2023-03-01T20:30:15.651Z,69.50
2023-03-01T20:32:42.437Z,53.45
2023-03-01T20:35:09.519Z,54.88
2023-03-01T20:37:36.054Z,57.53
2023-03-01T20:40:02.565Z,55.88
2023-03-01T20:42:29.116Z,58.28
2023-03-01T20:44:55.620Z,58.25
2023-03-01T20:47:23.244Z,57.85
2023-03-01T20:49:53.296Z,55.03
2023-03-01T20:52:19.898Z,44.47
2023-03-01T20:54:46.704Z,47.05
2023-03-01T20:57:13.189Z,54.22
2023-03-01T20:59:39.705Z,60.60
2023-03-01T21:02:06.412Z,51.70
2023-03-01T21:04:32.882Z,49.90
2023-03-01T21:06:59.416Z,50.00
2023-03-01T21:09:25.926Z,61.20
2023-03-01T21:11:52.450Z,69.32
2023-03-01T21:14:19.030Z,90.22
2023-03-01T21:16:45.959Z,88.13
2023-03-01T21:19:12.903Z,74.65
2023-03-01T21:21:39.609Z,66.25
2023-03-01T21:24:06.740Z,57.90
2023-03-01T21:26:33.687Z,52.63
2023-03-01T21:29:04.030Z,49.85
2023-03-01T21:31:34.064Z,45.97
2023-03-01T21:34:06.841Z,49.97
2023-03-01T21:36:34.674Z,48.22
2023-03-01T21:39:02.390Z,52.25
2023-03-01T21:41:31.746Z,49.22
2023-03-01T21:44:00.919Z,51.00
2023-03-01T21:46:31.007Z,53.60
2023-03-01T21:48:58.535Z,52.92
2023-03-01T21:51:27.641Z,53.53
2023-03-01T21:53:55.802Z,71.13
2023-03-01T21:56:25.470Z,65.47
2023-03-01T21:58:52.771Z,63.03
2023-03-01T22:01:24.573Z,60.45
2023-03-01T22:03:51.622Z,60.05
2023-03-01T22:06:20.743Z,61.13
2023-03-01T22:08:53.731Z,62.95
2023-03-01T22:11:20.418Z,61.40
2023-03-01T22:13:49.563Z,55.80
2023-03-01T22:16:17.034Z,56.65
2023-03-01T22:18:45.146Z,56.88
2023-03-01T22:21:11.888Z,58.85
2023-03-01T22:23:39.562Z,62.05
2023-03-01T22:26:06.608Z,62.67
2023-03-01T22:28:33.794Z,64.55
2023-03-01T22:31:04.819Z,69.95
2023-03-01T22:33:31.831Z,64.53
2023-03-01T22:35:58.372Z,67.20
2023-03-01T22:38:24.895Z,58.55
2023-03-01T22:41:02.523Z,47.20
2023-03-01T22:43:31.285Z,55.30
2023-03-01T22:45:57.827Z,58.58
2023-03-01T22:48:25.631Z,54.30
2023-03-01T22:50:52.590Z,56.78
2023-03-01T22:53:19.231Z,56.72
2023-03-01T22:55:45.793Z,78.55
2023-03-01T22:58:12.341Z,65.40
2023-03-01T23:00:38.832Z,76.32
2023-03-01T23:03:05.553Z,71.85
2023-03-01T23:05:32.158Z,62.22
2023-03-01T23:07:58.652Z,63.17
2023-03-01T23:10:26.004Z,59.30
2023-03-01T23:12:55.454Z,60.05
2023-03-01T23:15:21.972Z,61.90
2023-03-01T23:17:48.567Z,63.50
2023-03-01T23:20:15.405Z,67.40
2023-03-01T23:22:42.043Z,69.43
2023-03-01T23:25:14.996Z,67.00
2023-03-01T23:27:41.887Z,81.57
2023-03-01T23:30:09.792Z,79.60
2023-03-01T23:32:40.844Z,68.72
2023-03-01T23:35:08.827Z,63.50
2023-03-01T23:37:35.333Z,59.63
2023-03-01T23:40:02.049Z,62.42
2023-03-01T23:42:28.518Z,69.95
2023-03-01T23:44:55.059Z,73.60
2023-03-01T23:47:21.529Z,70.20
2023-03-01T23:49:50.282Z,65.35
2023-03-01T23:52:17.400Z,71.18
2023-03-01T23:54:44.511Z,68.13
2023-03-01T23:57:10.999Z,63.95
2023-03-01T23:59:37.504Z,66.28
